Portada
METAR-TAF:

METAR-TAF

Aeroports :

Aeroport de Palma - Son Sant Joan

Palma, Espanya

latitud: 39-33N, longitud: 002-44E, altitud: 4 m

Observació

L'informe es va fer fa 26 minuts, a les 03:00 UTC
Vent 1 kt amb direcció variable
Temperatura 20°C
Humitat 83%
Pressió 1011 hPa
Visibilitat 10 km o més
Cel ennuvolat a una alçada de 1700 ft

METAR: LEPA 270300Z VRB01KT 9999 BKN017 20/17 Q1011 NOSIG

Hora: 05:26 (03:26 UTC)

Pronòstic

L'informe es va fer fa 4 hores i 26 minuts, a les 23:00 UTC
Pronòstic vàlid del 27 a les 00 UTC al 27 a les 24 UTC
Vent 6 kt del Est/Nord-Est
Visibilitat 10 km o més
Núvols disperses a una alçada de 1500 ft
Evolucionant progressivament
l' 27 a les 08 UTC al 27 a les 10 UTC
Vent 12 kt del Sud-Oest
Evolucionant progressivament
l' 27 a les 20 UTC al 27 a les 22 UTC
Vent 5 kt del Sud

TAF: LEPA 262300Z 2700/2724 06006KT 9999 SCT015 TX27/2712Z TN15/2706Z BECMG 2708/2710 22012KT BECMG 2720/2722 18005KT

Observacions i pronòstics meteorològics de més de 4000 aeroports (METAR i TAF).

Les estacions disponibles són els punts grocs i vermells al mapa.

Posi el ratolí al punt desitjat per veure el nom de l'estació.

Feu clic per veure les observacions i els pronòstics meteorològics.

Per canviar el mapa: feu clic els botons verds amb una creu de color negre per apropar; al botó verd amb un guió per allunyar la imatge; o en les fletxes verdes per a mapes adjacents.


METAR-TAF: